Terminal Aerodrome Forecast
Issued by NWS St Louis, MO

Home | Current Version | Previous Version | Text Only | Print | Product List | Glossary On
Versions: 1 2 3 4 5 6 7 8 9 10 11 12 13 14 15 16 17 18 19 20 21 22 23 24 25 26 27 28 29 30 31
000
FTUS43 KLSX 181500 AAC
TAFSTL
TAF AMD
KSTL 181525Z 1815/1918 06004KT 3SM -SN BR OVC020
      TEMPO 1815/1817 1SM -SN BR BKN007 OVC015
     FM181800 06005KT 6SM -SN BR OVC025
     FM190000 06004KT 5SM BR OVC015
     FM191000 06004KT 3SM BR OVC008=

USA.gov is the U.S. government's official web portal to all federal, state and local government web resources and services.